createdAt,value
2022-09-21T00:02:24.867Z,2.38
2022-09-21T00:04:55.250Z,2.92
2022-09-21T00:07:25.410Z,1.15
2022-09-21T00:09:55.583Z,0.73
2022-09-21T00:12:25.872Z,0.60
2022-09-21T00:14:56.818Z,1.60
2022-09-21T00:17:27.136Z,4.22
2022-09-21T00:19:58.241Z,1.65
2022-09-21T00:22:28.486Z,1.92
2022-09-21T00:24:58.701Z,2.40
2022-09-21T00:27:31.729Z,1.48
2022-09-21T00:30:04.830Z,2.65
2022-09-21T00:32:35.984Z,2.25
2022-09-21T00:35:09.380Z,2.78
2022-09-21T00:37:39.658Z,1.52
2022-09-21T00:40:10.363Z,2.85
2022-09-21T00:42:40.672Z,3.83
2022-09-21T00:45:22.711Z,1.33
2022-09-21T00:47:55.046Z,3.53
2022-09-21T00:50:27.577Z,1.52
2022-09-21T00:52:59.991Z,3.22
2022-09-21T00:55:43.589Z,6.47
2022-09-21T00:58:19.572Z,1.48
2022-09-21T01:00:49.838Z,2.90
2022-09-21T01:03:20.026Z,1.90
2022-09-21T01:05:50.710Z,3.75
2022-09-21T01:08:31.120Z,1.67
2022-09-21T01:11:35.951Z,1.67
2022-09-21T01:14:18.055Z,3.53
2022-09-21T01:16:52.236Z,4.03
2022-09-21T01:19:44.636Z,2.33
2022-09-21T01:22:30.728Z,2.47
2022-09-21T01:25:00.849Z,1.90
2022-09-21T01:27:41.436Z,1.20
2022-09-21T01:30:18.286Z,2.42
2022-09-21T01:32:51.155Z,1.65
2022-09-21T01:35:33.401Z,1.20
2022-09-21T01:38:40.688Z,4.22
2022-09-21T01:41:13.726Z,5.28
2022-09-21T01:43:50.245Z,5.82
2022-09-21T01:46:23.545Z,3.63
2022-09-21T01:48:58.437Z,2.65
2022-09-21T01:51:30.968Z,2.28
2022-09-21T01:54:21.751Z,1.60
2022-09-21T01:57:14.814Z,1.17
2022-09-21T01:59:50.925Z,3.67
2022-09-21T02:02:34.033Z,6.47
2022-09-21T02:05:06.632Z,2.95
2022-09-21T02:07:38.023Z,2.90
2022-09-21T02:10:12.634Z,4.78
2022-09-21T02:12:43.943Z,2.80
2022-09-21T02:15:14.281Z,2.70
2022-09-21T02:18:07.865Z,1.70
2022-09-21T02:20:56.079Z,2.35
2022-09-21T02:23:52.106Z,5.07
2022-09-21T02:26:37.716Z,2.20
2022-09-21T02:29:35.109Z,2.08
2022-09-21T02:32:14.815Z,1.20
2022-09-21T02:34:59.281Z,1.10
2022-09-21T02:38:10.120Z,2.40
2022-09-21T02:41:21.622Z,2.78
2022-09-21T02:44:03.656Z,1.60
2022-09-21T02:46:45.381Z,0.95
2022-09-21T02:49:23.937Z,1.58
2022-09-21T02:51:56.550Z,1.30
2022-09-21T02:54:33.366Z,1.77
2022-09-21T02:57:05.273Z,2.45
2022-09-21T02:59:36.119Z,11.20
2022-09-21T03:02:08.856Z,3.63
2022-09-21T03:04:39.344Z,2.35
2022-09-21T03:07:10.737Z,3.17
2022-09-21T03:09:41.133Z,3.50
2022-09-21T03:12:11.462Z,1.75
2022-09-21T03:14:41.637Z,1.30
2022-09-21T03:17:11.843Z,2.28
2022-09-21T03:19:42.307Z,1.27
2022-09-21T03:22:12.511Z,2.15
2022-09-21T03:24:48.680Z,2.75
2022-09-21T03:27:21.017Z,1.58
2022-09-21T03:29:51.460Z,1.00
2022-09-21T03:32:21.592Z,1.55
2022-09-21T03:34:52.284Z,1.27
2022-09-21T03:37:22.395Z,1.88
2022-09-21T03:39:52.587Z,1.67
2022-09-21T03:42:22.681Z,1.27
2022-09-21T03:44:52.876Z,2.45
2022-09-21T03:47:23.230Z,3.25
2022-09-21T03:49:53.370Z,1.30
2022-09-21T03:52:23.504Z,4.00
2022-09-21T03:54:53.668Z,1.98
2022-09-21T03:57:24.122Z,1.30
2022-09-21T03:59:55.869Z,2.40
2022-09-21T04:02:26.077Z,2.05
2022-09-21T04:04:56.265Z,3.00
2022-09-21T04:07:26.406Z,1.60
2022-09-21T04:09:56.826Z,2.83
2022-09-21T04:12:27.031Z,4.38
2022-09-21T04:14:57.605Z,2.35
2022-09-21T04:17:27.775Z,1.40
2022-09-21T04:19:58.367Z,2.95
2022-09-21T04:22:28.707Z,4.28
2022-09-21T04:24:58.791Z,3.40
2022-09-21T04:27:28.975Z,1.85
2022-09-21T04:29:59.099Z,2.03
2022-09-21T04:32:29.720Z,2.70
2022-09-21T04:34:59.943Z,3.13
2022-09-21T04:37:30.090Z,2.85
2022-09-21T04:40:00.568Z,1.67
2022-09-21T04:42:30.936Z,2.83
2022-09-21T04:45:01.073Z,3.13
2022-09-21T04:47:33.404Z,4.47
2022-09-21T04:50:03.537Z,1.88
2022-09-21T04:52:33.744Z,3.75
2022-09-21T04:55:03.860Z,1.40
2022-09-21T04:57:34.058Z,2.22
2022-09-21T05:00:06.519Z,1.77
2022-09-21T05:02:36.725Z,2.60
2022-09-21T05:05:07.617Z,1.55
2022-09-21T05:07:37.983Z,1.45
2022-09-21T05:10:09.307Z,2.17
2022-09-21T05:12:41.129Z,3.55
2022-09-21T05:15:15.673Z,1.63
2022-09-21T05:17:46.228Z,4.63
2022-09-21T05:20:17.330Z,2.97
2022-09-21T05:22:47.515Z,1.80
2022-09-21T05:25:17.746Z,2.33
2022-09-21T05:27:48.083Z,2.40
2022-09-21T05:30:18.632Z,1.60
2022-09-21T05:33:03.612Z,2.03
2022-09-21T05:36:02.699Z,2.45
2022-09-21T05:38:33.238Z,5.28
2022-09-21T05:41:04.006Z,6.00
2022-09-21T05:43:34.416Z,5.53
2022-09-21T05:46:20.903Z,6.00
2022-09-21T05:49:05.094Z,4.13
2022-09-21T05:51:50.657Z,4.25
2022-09-21T05:54:38.892Z,6.47
2022-09-21T05:57:34.120Z,3.53
2022-09-21T06:00:22.906Z,4.88
2022-09-21T06:03:17.843Z,4.53
2022-09-21T06:05:48.173Z,3.50
2022-09-21T06:08:25.389Z,2.65
2022-09-21T06:10:56.468Z,2.95
2022-09-21T06:13:26.694Z,4.70
2022-09-21T06:15:56.912Z,2.03
2022-09-21T06:18:27.279Z,4.70
2022-09-21T06:20:57.601Z,3.15
2022-09-21T06:23:27.829Z,3.03
2022-09-21T06:25:58.785Z,2.83
2022-09-21T06:28:29.905Z,2.20
2022-09-21T06:31:01.383Z,4.07
2022-09-21T06:33:33.286Z,4.05
2022-09-21T06:36:03.615Z,3.92
2022-09-21T06:38:34.017Z,5.30
2022-09-21T06:41:07.873Z,3.05
2022-09-21T06:43:38.088Z,7.57
2022-09-21T06:46:08.541Z,4.35
2022-09-21T06:48:38.960Z,2.78
2022-09-21T06:51:09.683Z,5.97
2022-09-21T06:53:39.844Z,4.75
2022-09-21T06:56:12.473Z,2.80
2022-09-21T06:58:42.899Z,3.70
2022-09-21T07:01:16.681Z,2.00
2022-09-21T07:03:47.489Z,2.78
2022-09-21T07:06:17.643Z,2.47
2022-09-21T07:11:41.779Z,3.22
2022-09-21T07:14:12.186Z,2.33
2022-09-21T07:16:42.798Z,2.38
2022-09-21T07:19:13.092Z,2.50
2022-09-21T07:21:43.646Z,4.10
2022-09-21T07:24:13.988Z,2.25
2022-09-21T07:26:44.353Z,3.10
2022-09-21T07:29:15.034Z,3.25
2022-09-21T07:31:48.322Z,3.30
2022-09-21T07:34:18.781Z,3.92
2022-09-21T07:36:49.040Z,2.13
2022-09-21T07:39:19.214Z,4.07
2022-09-21T07:41:50.713Z,2.95
2022-09-21T07:44:22.171Z,5.32
2022-09-21T07:46:52.553Z,2.67
2022-09-21T07:49:22.719Z,2.50
2022-09-21T07:51:52.903Z,1.98
2022-09-21T07:54:23.275Z,2.72
2022-09-21T07:57:11.457Z,2.50
2022-09-21T07:59:41.810Z,3.50
2022-09-21T08:02:12.173Z,2.35
2022-09-21T08:04:42.467Z,3.95
2022-09-21T08:07:12.665Z,2.38
2022-09-21T08:09:43.667Z,2.40
2022-09-21T08:12:13.987Z,2.08
2022-09-21T08:14:44.571Z,1.80
2022-09-21T08:17:14.934Z,2.10
2022-09-21T08:19:45.220Z,2.13
2022-09-21T08:22:16.059Z,2.22
2022-09-21T08:24:46.352Z,2.00
2022-09-21T08:27:16.555Z,1.80
2022-09-21T08:29:47.762Z,2.55
2022-09-21T08:32:39.492Z,5.30
2022-09-21T08:35:09.202Z,2.05
2022-09-21T08:37:39.960Z,3.08
2022-09-21T08:40:12.019Z,2.40
2022-09-21T08:43:08.462Z,6.30
2022-09-21T08:45:46.786Z,1.85
2022-09-21T08:48:30.884Z,1.80
2022-09-21T08:51:07.730Z,3.13
2022-09-21T08:53:45.974Z,2.05
2022-09-21T08:56:17.861Z,2.78
2022-09-21T08:58:47.987Z,2.08
2022-09-21T09:01:38.174Z,1.92
2022-09-21T09:04:37.243Z,2.00
2022-09-21T09:07:28.516Z,1.48
2022-09-21T09:10:06.568Z,2.25
2022-09-21T09:12:39.475Z,1.50
2022-09-21T09:15:41.168Z,1.90
2022-09-21T09:18:14.507Z,1.70
2022-09-21T09:20:50.428Z,1.58
2022-09-21T09:23:37.212Z,1.65
2022-09-21T09:26:38.712Z,2.10
2022-09-21T09:29:45.324Z,1.90
2022-09-21T09:32:20.329Z,2.25
2022-09-21T09:35:07.769Z,2.00
2022-09-21T09:37:42.687Z,4.10
2022-09-21T09:40:16.598Z,1.92
2022-09-21T09:43:27.454Z,3.17
2022-09-21T09:46:36.487Z,2.40
2022-09-21T09:49:27.705Z,3.45
2022-09-21T09:51:58.023Z,3.33
2022-09-21T09:54:32.127Z,1.70
2022-09-21T09:57:05.209Z,1.83
2022-09-21T09:59:43.836Z,1.65
2022-09-21T10:02:24.953Z,3.70
2022-09-21T10:05:01.864Z,7.70
2022-09-21T10:07:42.363Z,2.63
2022-09-21T10:10:43.467Z,2.97
2022-09-21T10:13:25.655Z,6.32
2022-09-21T10:15:59.942Z,3.28
2022-09-21T10:18:42.387Z,2.53
2022-09-21T10:21:24.037Z,1.65
2022-09-21T10:24:06.526Z,2.65
2022-09-21T10:26:56.128Z,4.00
2022-09-21T10:29:27.019Z,2.95
2022-09-21T10:32:13.705Z,3.05
2022-09-21T10:35:15.447Z,1.63
2022-09-21T10:37:50.345Z,1.50
2022-09-21T10:40:23.660Z,4.03
2022-09-21T10:43:02.435Z,2.55
2022-09-21T10:45:36.987Z,2.53
2022-09-21T10:48:23.159Z,2.65
2022-09-21T10:50:55.369Z,2.35
2022-09-21T10:53:32.514Z,1.80
2022-09-21T10:56:20.385Z,1.63
2022-09-21T10:59:13.842Z,1.83
2022-09-21T11:01:50.306Z,1.50
2022-09-21T11:04:51.977Z,2.95
2022-09-21T11:07:37.229Z,1.45
2022-09-21T11:10:38.077Z,2.63
2022-09-21T11:13:28.254Z,2.25
2022-09-21T11:16:16.422Z,3.25
2022-09-21T11:19:07.707Z,1.58
2022-09-21T11:21:50.003Z,4.28
2022-09-21T11:24:45.666Z,1.60
2022-09-21T11:27:33.770Z,1.67
2022-09-21T11:30:12.814Z,1.50
2022-09-21T11:32:58.605Z,1.75
2022-09-21T11:35:59.787Z,1.75
2022-09-21T11:38:51.492Z,1.27
2022-09-21T11:41:21.927Z,1.38
2022-09-21T11:44:19.150Z,2.20
2022-09-21T11:47:18.779Z,1.05
2022-09-21T11:50:29.256Z,2.67
2022-09-21T11:53:16.967Z,1.60
2022-09-21T11:56:20.691Z,1.42
2022-09-21T11:59:09.133Z,1.70
2022-09-21T12:01:39.354Z,1.17
2022-09-21T12:04:38.509Z,6.25
2022-09-21T12:07:42.500Z,2.38
2022-09-21T12:10:18.400Z,2.55
2022-09-21T12:13:07.645Z,1.70
2022-09-21T12:15:48.749Z,1.42
2022-09-21T12:18:34.458Z,2.03
2022-09-21T12:21:24.817Z,2.40
2022-09-21T12:24:07.227Z,1.75
2022-09-21T12:26:51.906Z,2.28
2022-09-21T12:29:27.638Z,1.48
2022-09-21T12:32:10.025Z,1.70
2022-09-21T12:34:53.281Z,0.88
2022-09-21T12:37:58.590Z,1.92
2022-09-21T12:40:40.453Z,1.48
2022-09-21T12:43:29.197Z,1.17
2022-09-21T12:46:10.488Z,3.63
2022-09-21T12:48:43.575Z,3.63
2022-09-21T12:51:28.565Z,0.95
2022-09-21T12:54:02.462Z,2.53
2022-09-21T12:57:23.603Z,1.60
2022-09-21T13:00:11.888Z,1.05
2022-09-21T13:05:41.159Z,1.13
2022-09-21T13:08:38.294Z,0.90
2022-09-21T13:11:09.970Z,1.50
2022-09-21T13:13:55.030Z,1.85
2022-09-21T13:16:43.324Z,1.10
2022-09-21T13:19:16.418Z,2.22
2022-09-21T13:21:47.015Z,4.75
2022-09-21T13:24:33.018Z,2.90
2022-09-21T13:27:08.205Z,2.50
2022-09-21T13:29:44.577Z,5.20
2022-09-21T13:32:15.495Z,4.75
2022-09-21T13:34:48.810Z,2.13
2022-09-21T13:37:22.060Z,3.28
2022-09-21T13:39:58.458Z,5.95
2022-09-21T13:42:37.935Z,5.20
2022-09-21T13:45:08.434Z,6.07
2022-09-21T13:47:41.371Z,7.05
2022-09-21T13:50:30.809Z,7.00
2022-09-21T13:53:10.869Z,4.82
2022-09-21T13:55:50.777Z,8.02
2022-09-21T13:58:26.864Z,5.70
2022-09-21T14:01:04.165Z,6.32
2022-09-21T14:03:39.953Z,5.68
2022-09-21T14:06:37.513Z,7.93
2022-09-21T14:09:11.307Z,5.88
2022-09-21T14:11:43.387Z,6.95
2022-09-21T14:14:20.121Z,6.32
2022-09-21T14:16:55.310Z,5.32
2022-09-21T14:19:25.403Z,7.18
2022-09-21T14:22:08.996Z,5.60
2022-09-21T14:24:45.387Z,4.78
2022-09-21T14:27:25.297Z,5.63
2022-09-21T14:30:08.070Z,5.65
2022-09-21T14:33:09.119Z,5.68
2022-09-21T14:35:50.498Z,5.25
2022-09-21T14:38:53.694Z,5.95
2022-09-21T14:41:27.074Z,3.45
2022-09-21T14:44:00.212Z,7.63
2022-09-21T14:46:50.837Z,5.78
2022-09-21T14:49:47.965Z,5.53
2022-09-21T14:52:33.458Z,5.70
2022-09-21T14:55:26.040Z,4.53
2022-09-21T14:58:15.909Z,7.20
2022-09-21T15:00:56.183Z,5.60
2022-09-21T15:03:40.568Z,6.05
2022-09-21T15:07:09.689Z,3.50
2022-09-21T15:10:06.800Z,4.72
2022-09-21T15:12:55.068Z,3.97
2022-09-21T15:15:34.523Z,4.40
2022-09-21T15:18:19.495Z,4.57
2022-09-21T15:21:28.466Z,5.20
2022-09-21T15:24:01.847Z,3.03
2022-09-21T15:26:36.699Z,4.05
2022-09-21T15:29:13.320Z,6.25
2022-09-21T15:31:45.193Z,4.20
2022-09-21T15:34:17.548Z,3.40
2022-09-21T15:36:52.518Z,4.03
2022-09-21T15:39:32.271Z,3.97
2022-09-21T15:42:11.532Z,2.30
2022-09-21T15:44:42.767Z,4.00
2022-09-21T15:47:15.298Z,5.38
2022-09-21T15:49:47.291Z,2.95
2022-09-21T15:52:33.161Z,3.80
2022-09-21T15:55:13.288Z,5.15
2022-09-21T15:57:45.550Z,2.92
2022-09-21T16:00:18.931Z,3.20
2022-09-21T16:03:05.856Z,3.40
2022-09-21T16:05:49.163Z,3.80
2022-09-21T16:08:36.777Z,3.58
2022-09-21T16:11:31.416Z,5.07
2022-09-21T16:14:37.085Z,2.63
2022-09-21T16:17:19.210Z,3.95
2022-09-21T16:20:01.484Z,3.80
2022-09-21T16:22:45.174Z,3.95
2022-09-21T16:25:36.213Z,4.38
2022-09-21T16:28:18.968Z,3.03
2022-09-21T16:30:57.888Z,2.17
2022-09-21T16:33:40.331Z,3.15
2022-09-21T16:36:19.351Z,5.40
2022-09-21T16:38:51.612Z,3.25
2022-09-21T16:41:23.020Z,2.30
2022-09-21T16:43:53.785Z,2.17
2022-09-21T16:46:24.866Z,3.40
2022-09-21T16:48:58.316Z,3.17
2022-09-21T16:51:30.141Z,3.00
2022-09-21T16:54:01.384Z,3.92
2022-09-21T16:56:31.717Z,4.82
2022-09-21T16:59:05.413Z,2.63
2022-09-21T17:01:35.711Z,3.00
2022-09-21T17:04:05.967Z,2.97
2022-09-21T17:06:39.817Z,3.88
2022-09-21T17:09:33.723Z,2.58
2022-09-21T17:12:05.977Z,3.83
2022-09-21T17:14:39.958Z,2.72
2022-09-21T17:17:28.334Z,2.42
2022-09-21T17:19:58.664Z,2.70
2022-09-21T17:22:30.652Z,1.63
2022-09-21T17:25:01.027Z,1.85
2022-09-21T17:27:31.198Z,3.03
2022-09-21T17:30:04.980Z,2.13
2022-09-21T17:32:38.739Z,4.28
2022-09-21T17:35:18.989Z,2.45
2022-09-21T17:37:49.316Z,2.50
2022-09-21T17:40:20.094Z,2.83
2022-09-21T17:42:50.568Z,2.35
2022-09-21T17:45:40.409Z,2.65
2022-09-21T17:48:20.261Z,2.78
2022-09-21T17:50:51.723Z,2.20
2022-09-21T17:53:40.388Z,2.30
2022-09-21T17:56:42.428Z,3.83
2022-09-21T17:59:31.880Z,2.70
2022-09-21T18:02:05.633Z,2.83
2022-09-21T18:04:39.038Z,2.33
2022-09-21T18:07:12.019Z,3.28
2022-09-21T18:09:42.359Z,2.83
2022-09-21T18:12:48.839Z,2.72
2022-09-21T18:15:49.763Z,2.35
2022-09-21T18:18:31.650Z,2.05
2022-09-21T18:21:06.428Z,1.27
2022-09-21T18:24:08.729Z,2.85
2022-09-21T18:26:40.847Z,1.25
2022-09-21T18:29:40.070Z,2.92
2022-09-21T18:32:50.898Z,2.85
2022-09-21T18:35:27.350Z,2.13
2022-09-21T18:38:15.614Z,1.45
2022-09-21T18:41:06.618Z,2.65
2022-09-21T18:43:54.778Z,1.88
2022-09-21T18:46:39.890Z,1.83
2022-09-21T18:49:34.419Z,1.77
2022-09-21T18:52:23.580Z,2.25
2022-09-21T18:54:54.583Z,3.17
2022-09-21T18:57:25.349Z,2.25
2022-09-21T18:59:55.770Z,2.00
2022-09-21T19:02:26.528Z,1.63
2022-09-21T19:04:59.634Z,1.70
2022-09-21T19:07:58.558Z,1.15
2022-09-21T19:10:44.710Z,2.25
2022-09-21T19:13:52.574Z,2.10
2022-09-21T19:16:45.570Z,1.38
2022-09-21T19:19:38.635Z,1.15
2022-09-21T19:22:26.132Z,1.83
2022-09-21T19:25:08.173Z,1.30
2022-09-21T19:27:42.823Z,0.98
2022-09-21T19:30:15.698Z,1.50
2022-09-21T19:32:59.775Z,1.08
2022-09-21T19:35:31.549Z,1.20
2022-09-21T19:38:04.489Z,1.05
2022-09-21T19:40:41.081Z,1.08
2022-09-21T19:43:33.161Z,0.90
2022-09-21T19:46:47.631Z,1.27
2022-09-21T19:49:20.692Z,1.17
2022-09-21T19:51:57.587Z,0.82
2022-09-21T19:54:46.518Z,0.90
2022-09-21T19:57:42.154Z,0.70
2022-09-21T20:00:17.328Z,0.88
2022-09-21T20:02:50.516Z,0.60
2022-09-21T20:05:25.801Z,1.15
2022-09-21T20:08:06.213Z,1.25
2022-09-21T20:11:12.062Z,0.80
2022-09-21T20:13:54.924Z,0.80
2022-09-21T20:16:52.330Z,0.95
2022-09-21T20:19:46.445Z,0.65
2022-09-21T20:22:29.843Z,0.47
2022-09-21T20:25:12.684Z,0.82
2022-09-21T20:27:55.194Z,0.95
2022-09-21T20:30:28.219Z,1.00
2022-09-21T20:33:04.933Z,0.70
2022-09-21T20:35:36.362Z,0.82
2022-09-21T20:38:06.592Z,0.60
2022-09-21T20:40:37.583Z,0.40
2022-09-21T20:43:09.537Z,0.43
2022-09-21T20:45:42.420Z,0.77
2022-09-21T20:48:15.191Z,0.43
2022-09-21T20:50:48.235Z,0.45
2022-09-21T20:53:19.183Z,0.60
2022-09-21T20:56:00.326Z,1.88
2022-09-21T20:58:31.687Z,0.55
2022-09-21T21:01:09.878Z,0.47
2022-09-21T21:03:40.221Z,0.32
2022-09-21T21:06:16.079Z,0.50
2022-09-21T21:08:46.920Z,0.50
2022-09-21T21:11:17.177Z,0.82
2022-09-21T21:13:48.291Z,0.95
2022-09-21T21:16:18.913Z,0.50
2022-09-21T21:18:49.235Z,0.40
2022-09-21T21:21:19.692Z,0.50
2022-09-21T21:24:11.862Z,0.50
2022-09-21T21:27:01.182Z,0.80
2022-09-21T21:29:32.791Z,0.30
2022-09-21T21:32:03.357Z,0.60
2022-09-21T21:34:33.601Z,0.55
2022-09-21T21:37:03.875Z,1.05
2022-09-21T21:39:34.225Z,1.08
2022-09-21T21:42:04.450Z,0.50
2022-09-21T21:44:34.678Z,0.60
2022-09-21T21:47:21.355Z,1.20
2022-09-21T21:49:55.337Z,0.50
2022-09-21T21:52:25.653Z,0.50
2022-09-21T21:54:55.934Z,0.60
2022-09-21T21:57:26.219Z,1.10
2022-09-21T21:59:56.407Z,0.40
2022-09-21T22:02:26.695Z,0.52
2022-09-21T22:04:56.878Z,0.50
2022-09-21T22:07:27.140Z,0.80
2022-09-21T22:09:57.610Z,0.50
2022-09-21T22:12:27.781Z,0.52
2022-09-21T22:14:57.904Z,0.40
2022-09-21T22:17:28.297Z,0.43
2022-09-21T22:19:58.624Z,1.75
2022-09-21T22:22:28.894Z,0.50
2022-09-21T22:24:59.132Z,1.83
2022-09-21T22:27:29.266Z,0.93
2022-09-21T22:29:59.459Z,0.32
2022-09-21T22:32:29.720Z,0.70
2022-09-21T22:35:00.155Z,3.13
2022-09-21T22:37:30.598Z,0.30
2022-09-21T22:40:01.137Z,0.40
2022-09-21T22:42:31.632Z,0.40
2022-09-21T22:45:01.963Z,0.60
2022-09-21T22:47:32.870Z,2.50
2022-09-21T22:50:03.373Z,2.42
2022-09-21T22:52:33.871Z,0.80
2022-09-21T22:55:04.313Z,0.50
2022-09-21T22:57:34.807Z,0.80
2022-09-21T23:00:07.030Z,0.57
2022-09-21T23:02:37.263Z,0.80
2022-09-21T23:05:07.875Z,1.90
2022-09-21T23:07:38.613Z,0.52
2022-09-21T23:10:09.609Z,0.98
2022-09-21T23:12:40.196Z,0.30
2022-09-21T23:15:11.504Z,1.20
2022-09-21T23:17:41.695Z,0.50
2022-09-21T23:20:13.098Z,0.73
2022-09-21T23:22:43.440Z,0.80
2022-09-21T23:25:13.739Z,1.77
2022-09-21T23:27:43.917Z,3.95
2022-09-21T23:30:14.343Z,0.55
2022-09-21T23:32:45.040Z,1.10
2022-09-21T23:35:15.612Z,0.47
2022-09-21T23:37:45.861Z,2.65
2022-09-21T23:40:16.178Z,7.05
2022-09-21T23:42:46.423Z,6.93
2022-09-21T23:45:16.686Z,2.80
2022-09-21T23:47:46.995Z,4.70
2022-09-21T23:50:17.589Z,3.72
2022-09-21T23:52:47.738Z,3.50
2022-09-21T23:55:17.973Z,5.20
2022-09-21T23:57:48.202Z,4.95
